Time;durP1;ratioP1;P1;durP2;ratioP2;P2;SDS_P1;SDS_P2;PMS_P1;PMS_P2;Temp;Humidity;BMP_temperature;BMP_pressure;BME280_temperature;BME280_humidity;BME280_pressure;Samples;Min_cycle;Max_cycle;Signal;HPM_P1;HPM_P2
2022/11/01 00:01:08;;;;;;;24.83;12.88;;;;;;;;;;5035512;28;20137;-63
2022/11/01 00:03:35;;;;;;;31.88;14.13;;;;;;;;;;5033973;28;20037;-63
2022/11/01 00:06:01;;;;;;;23.10;13.45;;;;;;;;;;5038864;28;20063;-63
2022/11/01 00:08:27;;;;;;;24.30;13.38;;;;;;;;;;5036137;28;20124;-63
2022/11/01 00:11:00;;;;;;;20.75;12.93;;;;;;;;;;5034622;28;20037;-63
2022/11/01 00:13:26;;;;;;;23.38;12.00;;;;;;;;;;5035330;28;20052;-63
2022/11/01 00:15:53;;;;;;;23.60;12.05;;;;;;;;;;5034715;28;20612;-63
2022/11/01 00:18:19;;;;;;;20.88;12.10;;;;;;;;;;5030878;28;20044;-63
2022/11/01 00:20:45;;;;;;;27.52;12.57;;;;;;;;;;5033388;28;20057;-63
2022/11/01 00:23:13;;;;;;;22.15;12.00;;;;;;;;;;5033543;28;20512;-63
2022/11/01 00:25:39;;;;;;;23.15;11.73;;;;;;;;;;5034234;28;20921;-63
2022/11/01 00:28:05;;;;;;;19.67;10.90;;;;;;;;;;5035824;28;20037;-63
2022/11/01 00:30:31;;;;;;;25.58;12.00;;;;;;;;;;5033591;28;21825;-63
2022/11/01 00:32:58;;;;;;;21.80;11.93;;;;;;;;;;5032805;28;20049;-63
2022/11/01 00:35:24;;;;;;;20.27;12.07;;;;;;;;;;5033544;28;20040;-63
2022/11/01 00:37:50;;;;;;;19.48;11.45;;;;;;;;;;5031836;28;20072;-63
2022/11/01 00:40:16;;;;;;;21.33;11.18;;;;;;;;;;5035908;28;20048;-63
2022/11/01 00:42:42;;;;;;;19.70;10.60;;;;;;;;;;5048296;28;20045;-63
2022/11/01 00:45:09;;;;;;;31.38;12.07;;;;;;;;;;5033250;28;20102;-63
2022/11/01 00:47:35;;;;;;;25.25;12.20;;;;;;;;;;5033389;28;20043;-63
2022/11/01 00:50:01;;;;;;;23.85;10.10;;;;;;;;;;5032844;28;20107;-63
2022/11/01 00:52:27;;;;;;;20.40;11.07;;;;;;;;;;5064223;28;20041;-63
2022/11/01 00:54:53;;;;;;;18.08;10.32;;;;;;;;;;5032977;28;20136;-62
2022/11/01 00:57:19;;;;;;;22.05;10.73;;;;;;;;;;5035137;28;20172;-63
2022/11/01 00:59:46;;;;;;;19.25;10.20;;;;;;;;;;5031758;28;20059;-63
2022/11/01 01:02:12;;;;;;;21.67;10.23;;;;;;;;;;5034343;28;20045;-63
2022/11/01 01:04:41;;;;;;;19.92;9.93;;;;;;;;;;5034999;28;20471;-63
2022/11/01 01:07:08;;;;;;;20.80;10.20;;;;;;;;;;5063785;28;20045;-63
2022/11/01 01:09:34;;;;;;;21.95;10.48;;;;;;;;;;5035172;28;20052;-63
2022/11/01 01:12:01;;;;;;;19.08;10.95;;;;;;;;;;5040942;28;20265;-63
2022/11/01 01:14:27;;;;;;;22.55;11.20;;;;;;;;;;5039368;28;20044;-63
2022/11/01 01:16:54;;;;;;;16.52;9.57;;;;;;;;;;5038265;28;20037;-63
2022/11/01 01:19:20;;;;;;;20.65;10.77;;;;;;;;;;5038801;28;20072;-63
2022/11/01 01:21:46;;;;;;;20.30;9.95;;;;;;;;;;5039109;28;20278;-63
2022/11/01 01:24:12;;;;;;;21.40;11.07;;;;;;;;;;5041700;28;20506;-63
2022/11/01 01:26:38;;;;;;;23.40;11.55;;;;;;;;;;5075261;28;20566;-63
2022/11/01 01:29:04;;;;;;;27.95;12.68;;;;;;;;;;5044183;28;20122;-63
2022/11/01 01:31:31;;;;;;;24.23;11.18;;;;;;;;;;5042342;28;20048;-63
2022/11/01 01:33:57;;;;;;;32.03;12.18;;;;;;;;;;5042684;28;20045;-63
2022/11/01 01:36:23;;;;;;;24.50;12.48;;;;;;;;;;5039529;28;20038;-63
2022/11/01 01:38:52;;;;;;;21.67;11.15;;;;;;;;;;5041792;28;20052;-63
2022/11/01 01:44:23;;;;;;;24.27;11.57;;;;;;;;;;5045501;28;20041;-63
2022/11/01 01:46:49;;;;;;;22.30;10.10;;;;;;;;;;5034579;28;20097;-64
2022/11/01 01:49:15;;;;;;;19.65;10.52;;;;;;;;;;5037356;28;20052;-63
2022/11/01 01:51:42;;;;;;;20.77;11.07;;;;;;;;;;5038132;28;20087;-63
2022/11/01 01:54:08;;;;;;;21.98;10.73;;;;;;;;;;5037427;28;20447;-63
2022/11/01 01:56:36;;;;;;;20.60;10.05;;;;;;;;;;5035232;28;20468;-63
2022/11/01 01:59:04;;;;;;;26.02;9.35;;;;;;;;;;5037201;28;20566;-64
2022/11/01 02:01:31;;;;;;;25.55;10.65;;;;;;;;;;5036756;28;20053;-63
2022/11/01 02:03:58;;;;;;;25.85;10.82;;;;;;;;;;5036812;28;20403;-63
2022/11/01 02:06:25;;;;;;;19.88;9.57;;;;;;;;;;5039262;28;20040;-63
2022/11/01 02:08:53;;;;;;;15.95;8.90;;;;;;;;;;5039305;28;20087;-63
2022/11/01 02:11:20;;;;;;;14.63;9.23;;;;;;;;;;5037216;28;20053;-63
2022/11/01 02:13:46;;;;;;;21.15;9.02;;;;;;;;;;5037213;28;20033;-64
2022/11/01 02:16:12;;;;;;;21.45;9.05;;;;;;;;;;5034838;28;20050;-63
2022/11/01 02:18:57;;;;;;;15.70;9.02;;;;;;;;;;5036010;28;20488;-63
2022/11/01 02:21:24;;;;;;;19.27;9.38;;;;;;;;;;5035060;28;20057;-63
2022/11/01 02:24:01;;;;;;;14.27;8.25;;;;;;;;;;5035021;28;20044;-63
2022/11/01 02:26:31;;;;;;;19.15;9.23;;;;;;;;;;5039304;28;20067;-63
2022/11/01 02:29:10;;;;;;;17.33;8.45;;;;;;;;;;5035267;28;20091;-63
2022/11/01 02:31:52;;;;;;;17.33;8.55;;;;;;;;;;5036553;28;20457;-63
2022/11/01 02:34:24;;;;;;;20.27;7.93;;;;;;;;;;5035532;28;20045;-63
2022/11/01 02:36:57;;;;;;;17.33;7.82;;;;;;;;;;5035214;28;20060;-63
2022/11/01 02:42:47;;;;;;;16.30;8.40;;;;;;;;;;5044906;28;20059;-63
2022/11/01 02:45:27;;;;;;;19.15;7.82;;;;;;;;;;5040805;28;20061;-63
2022/11/01 02:47:57;;;;;;;18.48;9.00;;;;;;;;;;5041916;28;20052;-63
2022/11/01 02:50:26;;;;;;;18.48;8.75;;;;;;;;;;5032947;28;20045;-63
2022/11/01 02:52:52;;;;;;;17.67;8.15;;;;;;;;;;5035734;28;20048;-63
2022/11/01 02:55:29;;;;;;;20.40;8.57;;;;;;;;;;5038338;28;20083;-63
2022/11/01 02:58:04;;;;;;;19.50;8.13;;;;;;;;;;5035222;28;20060;-63
2022/11/01 03:00:31;;;;;;;19.50;7.82;;;;;;;;;;5035844;28;20240;-63
2022/11/01 03:03:04;;;;;;;18.20;9.30;;;;;;;;;;5032952;28;20046;-63
2022/11/01 03:05:39;;;;;;;16.58;8.55;;;;;;;;;;5039516;28;20041;-63
2022/11/01 03:08:09;;;;;;;18.42;8.82;;;;;;;;;;5033479;28;20045;-63
2022/11/01 03:10:44;;;;;;;18.10;8.80;;;;;;;;;;5032187;28;20061;-63
2022/11/01 03:13:26;;;;;;;14.48;7.70;;;;;;;;;;5034295;28;20129;-63
2022/11/01 03:15:56;;;;;;;15.45;8.50;;;;;;;;;;5041976;28;20099;-63
2022/11/01 03:18:28;;;;;;;13.48;7.40;;;;;;;;;;5073779;28;20132;-63
2022/11/01 03:20:59;;;;;;;16.88;7.82;;;;;;;;;;5039470;28;20303;-63
2022/11/01 03:23:28;;;;;;;14.05;8.93;;;;;;;;;;5041567;28;20687;-63
2022/11/01 03:25:56;;;;;;;15.52;7.68;;;;;;;;;;5042538;28;20041;-63
2022/11/01 03:28:25;;;;;;;18.05;8.30;;;;;;;;;;5040985;28;21101;-63
2022/11/01 03:31:00;;;;;;;20.58;8.95;;;;;;;;;;5041442;28;20082;-63
2022/11/01 03:33:27;;;;;;;16.75;7.60;;;;;;;;;;5040488;28;20057;-63
2022/11/01 03:35:57;;;;;;;18.70;7.22;;;;;;;;;;5070129;28;20160;-63
2022/11/01 03:38:26;;;;;;;18.45;7.95;;;;;;;;;;5040707;28;20056;-63
2022/11/01 03:40:55;;;;;;;14.68;7.85;;;;;;;;;;5039766;28;20465;-63
2022/11/01 03:43:22;;;;;;;16.02;8.05;;;;;;;;;;5038914;28;20053;-63
2022/11/01 03:45:48;;;;;;;16.73;7.53;;;;;;;;;;5038778;28;20101;-63
2022/11/01 03:48:14;;;;;;;15.25;7.75;;;;;;;;;;5035731;28;20121;-63
2022/11/01 03:50:46;;;;;;;14.13;7.75;;;;;;;;;;5037769;28;20482;-63
2022/11/01 03:53:12;;;;;;;17.38;8.13;;;;;;;;;;5036252;28;21547;-63
2022/11/01 03:55:38;;;;;;;13.98;7.25;;;;;;;;;;5037718;28;20133;-63
2022/11/01 03:58:06;;;;;;;18.52;7.75;;;;;;;;;;5037131;28;20076;-63
2022/11/01 04:00:34;;;;;;;21.45;7.68;;;;;;;;;;5066380;28;20053;-63
2022/11/01 04:03:00;;;;;;;14.68;7.28;;;;;;;;;;5035902;28;20049;-62
2022/11/01 04:05:27;;;;;;;14.73;7.38;;;;;;;;;;5037902;28;20044;-63
2022/11/01 04:07:54;;;;;;;15.15;6.88;;;;;;;;;;5029507;28;20053;-63
2022/11/01 04:10:20;;;;;;;14.65;7.60;;;;;;;;;;5037207;28;20099;-63
2022/11/01 04:12:47;;;;;;;13.70;6.55;;;;;;;;;;5035579;28;20055;-63
2022/11/01 04:20:48;;;;;;;13.45;6.88;;;;;;;;;;5032932;28;20045;-63
2022/11/01 04:23:14;;;;;;;17.05;7.50;;;;;;;;;;5032722;28;20102;-63
2022/11/01 04:25:40;;;;;;;15.60;6.65;;;;;;;;;;5034853;28;20043;-63
2022/11/01 04:28:06;;;;;;;17.77;7.07;;;;;;;;;;5036050;28;20132;-63
2022/11/01 04:30:32;;;;;;;17.40;7.18;;;;;;;;;;5032952;28;20098;-63
2022/11/01 04:32:59;;;;;;;17.80;7.88;;;;;;;;;;5030723;28;20389;-63
2022/11/01 04:35:25;;;;;;;15.05;6.90;;;;;;;;;;5034518;28;20432;-63
2022/11/01 04:37:56;;;;;;;18.27;6.18;;;;;;;;;;5035166;28;20098;-63
2022/11/01 04:40:22;;;;;;;17.58;7.07;;;;;;;;;;5034913;28;20079;-63
2022/11/01 04:42:48;;;;;;;13.50;6.60;;;;;;;;;;5036218;28;20044;-63
2022/11/01 04:45:15;;;;;;;19.70;6.95;;;;;;;;;;5031892;28;20052;-63
2022/11/01 04:47:49;;;;;;;12.35;6.97;;;;;;;;;;5034982;28;20400;-63
2022/11/01 04:50:16;;;;;;;17.15;7.40;;;;;;;;;;5063155;28;20049;-63
2022/11/01 04:52:42;;;;;;;13.35;6.50;;;;;;;;;;5030818;28;20045;-63
2022/11/01 04:55:08;;;;;;;15.43;6.85;;;;;;;;;;5064721;28;20045;-63
2022/11/01 04:57:41;;;;;;;11.68;6.18;;;;;;;;;;5031352;28;20060;-63
2022/11/01 05:00:10;;;;;;;13.35;6.57;;;;;;;;;;5034339;28;20057;-63
2022/11/01 05:02:36;;;;;;;11.85;4.53;;;;;;;;;;5033231;28;20052;-63
2022/11/01 05:05:02;;;;;;;10.85;4.15;;;;;;;;;;5035811;28;20523;-63
2022/11/01 05:07:29;;;;;;;7.57;3.47;;;;;;;;;;5067352;28;20128;-63
2022/11/01 05:09:55;;;;;;;7.32;2.92;;;;;;;;;;5036796;28;20087;-63
2022/11/01 05:12:21;;;;;;;5.28;2.03;;;;;;;;;;5034803;28;20079;-63
2022/11/01 05:14:47;;;;;;;6.57;2.05;;;;;;;;;;5041548;28;20071;-63
2022/11/01 05:17:13;;;;;;;7.28;1.85;;;;;;;;;;5042651;28;20231;-63
2022/11/01 05:19:39;;;;;;;6.80;2.13;;;;;;;;;;5039753;28;20079;-63
2022/11/01 05:22:05;;;;;;;4.53;1.58;;;;;;;;;;5043690;28;20037;-63
2022/11/01 05:24:31;;;;;;;6.80;1.83;;;;;;;;;;5079345;28;20053;-63
2022/11/01 05:26:59;;;;;;;5.40;1.33;;;;;;;;;;5045470;28;20049;-63
2022/11/01 05:29:26;;;;;;;7.70;1.40;;;;;;;;;;5075580;28;20136;-63
2022/11/01 05:31:52;;;;;;;7.32;1.73;;;;;;;;;;5046085;28;20093;-63
2022/11/01 05:34:19;;;;;;;7.22;1.45;;;;;;;;;;5047272;28;20082;-63
2022/11/01 05:36:45;;;;;;;10.50;1.50;;;;;;;;;;5045712;28;20892;-63
2022/11/01 05:39:11;;;;;;;3.67;1.15;;;;;;;;;;5043986;28;20179;-63
2022/11/01 05:41:39;;;;;;;7.95;1.95;;;;;;;;;;5045427;28;20051;-62
2022/11/01 05:44:05;;;;;;;5.97;1.52;;;;;;;;;;5043337;28;20049;-63
2022/11/01 05:46:31;;;;;;;11.95;3.03;;;;;;;;;;5077177;28;20143;-63
2022/11/01 05:48:58;;;;;;;6.30;1.27;;;;;;;;;;5073708;28;20033;-63
2022/11/01 05:51:24;;;;;;;8.45;1.42;;;;;;;;;;5040872;28;20117;-63
2022/11/01 05:53:50;;;;;;;7.22;1.40;;;;;;;;;;5041090;28;20122;-63
2022/11/01 05:56:17;;;;;;;8.15;1.40;;;;;;;;;;5040784;28;20067;-64
2022/11/01 05:58:43;;;;;;;6.90;1.30;;;;;;;;;;5043439;28;20045;-63
2022/11/01 06:01:10;;;;;;;7.00;2.25;;;;;;;;;;5041084;28;20115;-64
2022/11/01 06:03:36;;;;;;;8.55;2.03;;;;;;;;;;5041367;28;21779;-63
2022/11/01 06:06:02;;;;;;;9.95;1.90;;;;;;;;;;5042465;28;20487;-63
2022/11/01 06:08:29;;;;;;;14.32;2.75;;;;;;;;;;5040723;28;20548;-63
2022/11/01 06:11:01;;;;;;;11.07;1.42;;;;;;;;;;5044557;28;20066;-62
2022/11/01 06:13:27;;;;;;;13.00;1.75;;;;;;;;;;5042663;28;20413;-65
2022/11/01 06:15:58;;;;;;;11.18;2.60;;;;;;;;;;5042136;28;20056;-65
2022/11/01 06:18:24;;;;;;;14.00;2.22;;;;;;;;;;5045246;28;20045;-62
2022/11/01 06:20:51;;;;;;;13.05;1.88;;;;;;;;;;5044578;28;20076;-62
2022/11/01 06:23:17;;;;;;;11.82;1.60;;;;;;;;;;5045912;28;20141;-62
2022/11/01 06:25:43;;;;;;;16.15;3.60;;;;;;;;;;5039095;28;20115;-62
2022/11/01 06:28:09;;;;;;;7.82;1.55;;;;;;;;;;5037413;28;20454;-62
2022/11/01 06:30:37;;;;;;;5.97;1.40;;;;;;;;;;5043610;28;20526;-62
2022/11/01 06:33:05;;;;;;;14.93;2.35;;;;;;;;;;5046138;28;20045;-63
2022/11/01 06:35:31;;;;;;;7.45;1.10;;;;;;;;;;5050044;28;20055;-62
2022/11/01 06:38:02;;;;;;;10.25;1.70;;;;;;;;;;5043663;28;20133;-62
2022/11/01 06:40:28;;;;;;;9.80;1.55;;;;;;;;;;5042233;28;20055;-62
2022/11/01 06:42:58;;;;;;;10.60;2.20;;;;;;;;;;5072375;28;20093;-62
2022/11/01 06:45:24;;;;;;;15.88;2.78;;;;;;;;;;5043045;28;20170;-62
2022/11/01 06:47:50;;;;;;;14.35;2.25;;;;;;;;;;5040021;28;20044;-63
2022/11/01 06:50:17;;;;;;;10.30;2.10;;;;;;;;;;5075683;28;20815;-63
2022/11/01 06:52:43;;;;;;;19.20;2.55;;;;;;;;;;5046773;28;20263;-63
2022/11/01 06:55:09;;;;;;;11.10;2.05;;;;;;;;;;5049613;28;20131;-61
2022/11/01 06:57:35;;;;;;;13.02;2.63;;;;;;;;;;5050642;28;20049;-63
2022/11/01 07:00:01;;;;;;;14.90;3.13;;;;;;;;;;5050196;28;20045;-63
2022/11/01 07:02:27;;;;;;;16.63;3.33;;;;;;;;;;5050795;28;20090;-63
2022/11/01 07:04:54;;;;;;;9.27;2.13;;;;;;;;;;5050437;28;20085;-63
2022/11/01 07:07:20;;;;;;;16.63;2.45;;;;;;;;;;5041396;28;20060;-63
2022/11/01 07:09:46;;;;;;;13.77;2.78;;;;;;;;;;5050478;28;20037;-63
2022/11/01 07:12:12;;;;;;;17.33;2.60;;;;;;;;;;5049518;28;20161;-62
2022/11/01 07:14:38;;;;;;;12.57;2.20;;;;;;;;;;5047630;28;20059;-62
2022/11/01 07:17:04;;;;;;;16.48;2.50;;;;;;;;;;5043508;28;20045;-63
2022/11/01 07:19:30;;;;;;;15.65;2.50;;;;;;;;;;5043369;28;20124;-63
2022/11/01 07:21:57;;;;;;;18.23;2.92;;;;;;;;;;5035705;28;20060;-63
2022/11/01 07:24:23;;;;;;;13.57;1.75;;;;;;;;;;5037319;28;20045;-61
2022/11/01 07:26:49;;;;;;;13.60;2.15;;;;;;;;;;5076202;28;20083;-63
2022/11/01 07:29:15;;;;;;;19.88;2.97;;;;;;;;;;5042997;28;20488;-63
2022/11/01 07:31:41;;;;;;;13.82;3.00;;;;;;;;;;5040751;28;20595;-63
2022/11/01 07:34:08;;;;;;;11.98;2.60;;;;;;;;;;5040982;28;20481;-62
2022/11/01 07:36:34;;;;;;;13.65;2.97;;;;;;;;;;5041653;28;20075;-63
2022/11/01 07:39:00;;;;;;;14.68;3.15;;;;;;;;;;5043585;28;20076;-63
2022/11/01 07:41:26;;;;;;;14.52;2.78;;;;;;;;;;5040692;28;20056;-62
2022/11/01 07:43:52;;;;;;;17.83;4.68;;;;;;;;;;5045975;28;20072;-63
2022/11/01 07:46:19;;;;;;;17.05;4.45;;;;;;;;;;5043836;28;20052;-63
2022/11/01 07:48:45;;;;;;;14.82;2.70;;;;;;;;;;5046252;28;20190;-63
2022/11/01 07:51:11;;;;;;;18.35;3.42;;;;;;;;;;5041066;28;20119;-63
2022/11/01 07:53:37;;;;;;;19.13;3.58;;;;;;;;;;5071194;28;20124;-63
2022/11/01 07:56:03;;;;;;;20.98;3.53;;;;;;;;;;5047040;28;20369;-71
2022/11/01 07:58:29;;;;;;;22.83;3.42;;;;;;;;;;5053534;28;20072;-64
2022/11/01 08:00:56;;;;;;;16.92;3.53;;;;;;;;;;5047509;28;20082;-65
2022/11/01 08:03:22;;;;;;;25.63;3.95;;;;;;;;;;5046280;28;20456;-65
2022/11/01 08:05:49;;;;;;;16.20;3.50;;;;;;;;;;5047772;28;20040;-64
2022/11/01 08:08:15;;;;;;;17.98;3.05;;;;;;;;;;5075826;28;20056;-64
2022/11/01 08:10:42;;;;;;;15.40;2.75;;;;;;;;;;5042473;28;20033;-65
2022/11/01 08:13:21;;;;;;;17.10;3.72;;;;;;;;;;5040105;28;20053;-65
2022/11/01 08:15:48;;;;;;;18.05;3.28;;;;;;;;;;5036696;28;20457;-64
2022/11/01 08:18:15;;;;;;;19.55;3.92;;;;;;;;;;5042431;28;20037;-65
2022/11/01 08:20:41;;;;;;;20.30;3.20;;;;;;;;;;5046869;28;20399;-65
2022/11/01 08:23:08;;;;;;;19.73;3.80;;;;;;;;;;5060619;28;20040;-64
2022/11/01 08:25:34;;;;;;;24.63;3.95;;;;;;;;;;5043409;28;20484;-64
2022/11/01 08:28:01;;;;;;;22.10;4.75;;;;;;;;;;5042687;28;20192;-64
2022/11/01 08:30:27;;;;;;;24.05;4.15;;;;;;;;;;5044502;28;20123;-65
2022/11/01 08:33:00;;;;;;;18.55;3.67;;;;;;;;;;5042768;28;20086;-64
2022/11/01 08:35:27;;;;;;;18.83;4.47;;;;;;;;;;5044367;28;20051;-64
2022/11/01 08:37:53;;;;;;;17.48;3.70;;;;;;;;;;5036724;28;20295;-64
2022/11/01 08:40:20;;;;;;;27.35;3.38;;;;;;;;;;5037484;28;20041;-64
2022/11/01 08:42:46;;;;;;;20.13;3.75;;;;;;;;;;5044290;28;20052;-64
2022/11/01 08:45:12;;;;;;;21.98;4.00;;;;;;;;;;5038957;28;20055;-64
2022/11/01 08:47:39;;;;;;;18.58;3.90;;;;;;;;;;5043193;28;20041;-64
2022/11/01 08:50:06;;;;;;;21.33;3.05;;;;;;;;;;5040395;28;20044;-64
2022/11/01 08:52:32;;;;;;;24.02;3.35;;;;;;;;;;5036885;28;20057;-64
2022/11/01 08:54:58;;;;;;;30.17;3.80;;;;;;;;;;5045193;28;20060;-64
2022/11/01 08:57:24;;;;;;;17.85;4.55;;;;;;;;;;5049636;28;20104;-64
2022/11/01 08:59:50;;;;;;;25.00;4.80;;;;;;;;;;5049675;28;20029;-64
2022/11/01 09:02:17;;;;;;;20.25;4.25;;;;;;;;;;5042768;28;20404;-64
2022/11/01 09:04:43;;;;;;;21.80;4.00;;;;;;;;;;5048784;28;20083;-69
2022/11/01 09:07:09;;;;;;;20.98;4.07;;;;;;;;;;5045779;28;20053;-64
2022/11/01 09:09:35;;;;;;;27.85;4.60;;;;;;;;;;5043923;28;20087;-65
2022/11/01 09:12:03;;;;;;;21.55;4.95;;;;;;;;;;5044913;28;20045;-64
2022/11/01 09:14:29;;;;;;;22.15;4.15;;;;;;;;;;5050554;28;20445;-64
2022/11/01 09:16:56;;;;;;;21.35;3.80;;;;;;;;;;5046484;28;20125;-64
2022/11/01 09:19:22;;;;;;;29.30;5.15;;;;;;;;;;5044961;28;20040;-64
2022/11/01 09:21:48;;;;;;;22.95;4.85;;;;;;;;;;5046873;28;20045;-64
2022/11/01 09:24:15;;;;;;;20.10;4.35;;;;;;;;;;5049537;28;20037;-64
2022/11/01 09:26:42;;;;;;;22.10;4.00;;;;;;;;;;5045616;28;20080;-64
2022/11/01 09:29:08;;;;;;;19.83;4.00;;;;;;;;;;5047438;28;20033;-64
2022/11/01 09:31:34;;;;;;;22.40;4.22;;;;;;;;;;5050449;28;20064;-62
2022/11/01 09:34:00;;;;;;;15.65;3.50;;;;;;;;;;5047298;28;20098;-65
2022/11/01 09:36:27;;;;;;;20.85;4.38;;;;;;;;;;5075720;28;20175;-65
2022/11/01 09:38:54;;;;;;;18.15;3.88;;;;;;;;;;5043895;28;20040;-64
2022/11/01 09:41:24;;;;;;;20.55;4.05;;;;;;;;;;5079337;28;20048;-64
2022/11/01 09:43:50;;;;;;;19.25;3.40;;;;;;;;;;5046717;28;20048;-64
2022/11/01 09:46:19;;;;;;;18.85;3.90;;;;;;;;;;5046574;28;20546;-65
2022/11/01 09:48:46;;;;;;;21.63;4.90;;;;;;;;;;5043046;28;20385;-64
2022/11/01 09:51:16;;;;;;;17.50;3.95;;;;;;;;;;5048986;28;20053;-64
2022/11/01 09:53:42;;;;;;;20.17;3.50;;;;;;;;;;5046582;28;20033;-64
2022/11/01 09:56:13;;;;;;;22.33;3.50;;;;;;;;;;5076058;28;20053;-64
2022/11/01 09:58:40;;;;;;;20.02;4.18;;;;;;;;;;5048028;28;20400;-64
2022/11/01 10:01:12;;;;;;;21.77;3.97;;;;;;;;;;5046899;28;20052;-64
2022/11/01 10:03:54;;;;;;;20.70;4.85;;;;;;;;;;5048188;28;20044;-64
2022/11/01 10:06:27;;;;;;;28.33;4.20;;;;;;;;;;5047239;28;20080;-65
2022/11/01 10:08:58;;;;;;;24.65;3.70;;;;;;;;;;5044100;28;20053;-64
2022/11/01 10:11:37;;;;;;;21.25;3.80;;;;;;;;;;5047353;28;20098;-64
2022/11/01 10:14:18;;;;;;;17.42;3.95;;;;;;;;;;5043494;28;20477;-65
2022/11/01 10:16:56;;;;;;;20.63;3.63;;;;;;;;;;5044487;28;20128;-65
2022/11/01 10:19:25;;;;;;;22.25;4.00;;;;;;;;;;5040544;28;20041;-64
2022/11/01 10:21:53;;;;;;;28.55;4.57;;;;;;;;;;5043624;28;20504;-65
2022/11/01 10:24:37;;;;;;;12.88;2.63;;;;;;;;;;5043071;28;20505;-64
2022/11/01 10:27:13;;;;;;;18.25;3.85;;;;;;;;;;5044630;28;20064;-65
2022/11/01 10:29:46;;;;;;;26.90;4.80;;;;;;;;;;5040168;28;20809;-64
2022/11/01 10:32:23;;;;;;;19.70;3.45;;;;;;;;;;5036356;28;20052;-65
2022/11/01 10:34:50;;;;;;;18.95;4.15;;;;;;;;;;5048235;28;20107;-64
2022/11/01 10:37:26;;;;;;;16.98;2.90;;;;;;;;;;5043168;28;20121;-64
2022/11/01 10:39:55;;;;;;;23.58;3.78;;;;;;;;;;5044955;28;20384;-64
2022/11/01 10:42:22;;;;;;;39.30;5.72;;;;;;;;;;5043998;28;20417;-64
2022/11/01 10:44:54;;;;;;;20.42;3.40;;;;;;;;;;5045947;28;20037;-64
2022/11/01 10:47:20;;;;;;;20.75;3.97;;;;;;;;;;5046038;28;20119;-64
2022/11/01 10:49:49;;;;;;;38.45;3.45;;;;;;;;;;5026341;28;20061;-65
2022/11/01 10:52:17;;;;;;;26.95;4.88;;;;;;;;;;5043569;28;20167;-64
2022/11/01 10:54:44;;;;;;;21.52;3.80;;;;;;;;;;5041017;28;20037;-64
2022/11/01 10:57:14;;;;;;;28.45;5.15;;;;;;;;;;5046258;28;20067;-64
2022/11/01 10:59:42;;;;;;;14.38;2.95;;;;;;;;;;5075560;28;20048;-65
2022/11/01 11:02:14;;;;;;;19.75;4.40;;;;;;;;;;5044457;28;20496;-64
2022/11/01 11:04:40;;;;;;;17.75;3.25;;;;;;;;;;5046336;28;20202;-65
2022/11/01 11:07:12;;;;;;;16.70;3.42;;;;;;;;;;5046874;28;20041;-64
2022/11/01 11:09:38;;;;;;;22.52;4.00;;;;;;;;;;5048036;28;20037;-64
2022/11/01 11:12:10;;;;;;;20.35;4.22;;;;;;;;;;5077615;28;20052;-65
2022/11/01 11:14:36;;;;;;;19.48;4.22;;;;;;;;;;5064647;28;20049;-65
2022/11/01 11:17:03;;;;;;;15.32;3.53;;;;;;;;;;5041874;28;20571;-65
2022/11/01 11:19:29;;;;;;;17.23;3.17;;;;;;;;;;5047517;28;20207;-65
2022/11/01 11:21:56;;;;;;;19.92;3.55;;;;;;;;;;5045986;28;20053;-64
2022/11/01 11:24:25;;;;;;;14.23;3.03;;;;;;;;;;5045997;28;20049;-64
2022/11/01 11:26:53;;;;;;;18.33;3.10;;;;;;;;;;5041267;28;20037;-64
2022/11/01 11:29:27;;;;;;;16.95;3.53;;;;;;;;;;5075353;28;20103;-65
2022/11/01 11:31:55;;;;;;;17.38;3.65;;;;;;;;;;5080401;28;20045;-65
2022/11/01 11:34:27;;;;;;;18.48;3.70;;;;;;;;;;5045076;28;20159;-64
2022/11/01 11:36:54;;;;;;;18.95;4.43;;;;;;;;;;5049224;28;20048;-64
2022/11/01 11:39:24;;;;;;;18.27;4.25;;;;;;;;;;5057551;28;20086;-64
2022/11/01 11:41:50;;;;;;;17.25;3.25;;;;;;;;;;5044589;28;20044;-64
2022/11/01 11:44:37;;;;;;;15.27;2.92;;;;;;;;;;5046444;28;20055;-64
2022/11/01 11:47:04;;;;;;;13.20;3.45;;;;;;;;;;5037836;28;20135;-64
2022/11/01 11:49:31;;;;;;;16.15;3.45;;;;;;;;;;5043382;28;20522;-64
2022/11/01 11:51:57;;;;;;;20.40;3.13;;;;;;;;;;5044717;28;20405;-64
2022/11/01 11:54:30;;;;;;;19.55;3.20;;;;;;;;;;5042246;28;20044;-64
2022/11/01 11:57:14;;;;;;;20.98;3.13;;;;;;;;;;5043982;28;20068;-64
2022/11/01 11:59:42;;;;;;;18.20;3.60;;;;;;;;;;5076417;28;20522;-64
2022/11/01 12:02:18;;;;;;;16.20;3.92;;;;;;;;;;5043784;28;20055;-64
2022/11/01 12:04:48;;;;;;;18.85;4.25;;;;;;;;;;5046608;28;20079;-64
2022/11/01 12:07:24;;;;;;;18.48;3.60;;;;;;;;;;5076566;28;20129;-64
2022/11/01 12:09:50;;;;;;;14.60;3.22;;;;;;;;;;5075263;28;20045;-71
2022/11/01 12:12:18;;;;;;;19.40;3.88;;;;;;;;;;5042545;28;20045;-64
2022/11/01 12:14:45;;;;;;;18.10;3.70;;;;;;;;;;5043895;28;20053;-65
2022/11/01 12:17:23;;;;;;;24.20;3.67;;;;;;;;;;5078743;28;20043;-64
2022/11/01 12:19:49;;;;;;;21.63;3.58;;;;;;;;;;5077230;28;20055;-64
2022/11/01 12:22:15;;;;;;;15.65;3.63;;;;;;;;;;5046735;28;20048;-64
2022/11/01 12:24:45;;;;;;;15.20;3.60;;;;;;;;;;5066505;28;20491;-64
2022/11/01 12:27:14;;;;;;;18.00;4.18;;;;;;;;;;5048787;28;20095;-64
2022/11/01 12:29:46;;;;;;;19.05;3.03;;;;;;;;;;5047761;28;20147;-64
2022/11/01 12:32:16;;;;;;;18.23;4.03;;;;;;;;;;5048539;28;20072;-64
2022/11/01 12:34:43;;;;;;;26.40;4.50;;;;;;;;;;5047263;28;20044;-64
2022/11/01 12:37:15;;;;;;;21.42;3.33;;;;;;;;;;5046400;28;20492;-64
2022/11/01 12:39:44;;;;;;;19.30;3.88;;;;;;;;;;5047964;28;20417;-63
2022/11/01 12:42:14;;;;;;;17.75;2.70;;;;;;;;;;5040584;28;20112;-61
2022/11/01 12:44:42;;;;;;;21.40;2.90;;;;;;;;;;5046003;28;20449;-64
2022/11/01 12:47:14;;;;;;;17.70;3.30;;;;;;;;;;5041869;28;20116;-63
2022/11/01 12:49:45;;;;;;;21.05;3.90;;;;;;;;;;5075046;28;20170;-63
2022/11/01 12:52:16;;;;;;;18.17;3.20;;;;;;;;;;5043501;28;20059;-64
2022/11/01 12:54:46;;;;;;;18.80;3.90;;;;;;;;;;5041717;28;20040;-64
2022/11/01 12:57:15;;;;;;;17.52;2.85;;;;;;;;;;5043618;28;20121;-64
2022/11/01 12:59:42;;;;;;;17.42;3.17;;;;;;;;;;5043738;28;20156;-64
2022/11/01 13:02:08;;;;;;;17.42;3.17;;;;;;;;;;5043374;28;20052;-64
2022/11/01 13:04:36;;;;;;;12.93;2.60;;;;;;;;;;5042066;28;20139;-72
2022/11/01 13:07:12;;;;;;;14.13;2.85;;;;;;;;;;5058977;28;20060;-64
2022/11/01 13:09:45;;;;;;;18.13;3.25;;;;;;;;;;5039244;28;20163;-64
2022/11/01 13:12:26;;;;;;;14.75;2.35;;;;;;;;;;5034637;28;20060;-63
2022/11/01 13:14:52;;;;;;;14.00;3.05;;;;;;;;;;5075769;28;20052;-64
2022/11/01 13:17:38;;;;;;;15.77;2.72;;;;;;;;;;5038160;28;20041;-64
2022/11/01 13:20:04;;;;;;;20.98;3.92;;;;;;;;;;5038450;28;20049;-64
2022/11/01 13:22:35;;;;;;;14.88;2.78;;;;;;;;;;5040589;28;20044;-63
2022/11/01 13:25:05;;;;;;;12.90;2.40;;;;;;;;;;5038819;28;20061;-63
2022/11/01 13:27:34;;;;;;;12.40;2.45;;;;;;;;;;5042900;28;20052;-63
2022/11/01 13:30:02;;;;;;;15.52;3.15;;;;;;;;;;5040106;28;20053;-63
2022/11/01 13:32:31;;;;;;;17.42;3.72;;;;;;;;;;5040987;28;20049;-63
2022/11/01 13:34:57;;;;;;;14.23;2.42;;;;;;;;;;5075452;28;20044;-64
2022/11/01 13:37:31;;;;;;;10.75;2.75;;;;;;;;;;5072894;28;20064;-64
2022/11/01 13:40:00;;;;;;;16.02;2.85;;;;;;;;;;5038952;28;20045;-64
2022/11/01 13:42:30;;;;;;;17.17;3.00;;;;;;;;;;5058540;28;20048;-64
2022/11/01 13:45:13;;;;;;;11.73;2.50;;;;;;;;;;5075993;28;20060;-64
2022/11/01 13:47:40;;;;;;;10.77;2.72;;;;;;;;;;5044760;28;20621;-64
2022/11/01 13:50:18;;;;;;;17.30;2.95;;;;;;;;;;5049173;28;20045;-64
2022/11/01 13:52:47;;;;;;;16.42;3.42;;;;;;;;;;5044080;28;20447;-64
2022/11/01 13:55:23;;;;;;;13.38;2.50;;;;;;;;;;5046795;28;20052;-63
2022/11/01 13:57:49;;;;;;;10.15;2.40;;;;;;;;;;5047131;28;20071;-64
2022/11/01 14:00:41;;;;;;;14.18;3.15;;;;;;;;;;5046845;28;20115;-63
2022/11/01 14:03:28;;;;;;;12.38;2.67;;;;;;;;;;5046278;28;20134;-64
2022/11/01 14:06:12;;;;;;;15.52;2.75;;;;;;;;;;5047733;28;20302;-64
2022/11/01 14:08:40;;;;;;;12.60;2.60;;;;;;;;;;5046680;28;20044;-64
2022/11/01 14:11:06;;;;;;;10.05;2.75;;;;;;;;;;5045259;28;20075;-63
2022/11/01 14:13:35;;;;;;;15.52;2.33;;;;;;;;;;5043717;28;20077;-64
2022/11/01 14:16:02;;;;;;;10.52;2.83;;;;;;;;;;5046770;28;20080;-64
2022/11/01 14:18:42;;;;;;;10.13;2.38;;;;;;;;;;5044081;28;20045;-64
2022/11/01 14:21:21;;;;;;;12.77;2.33;;;;;;;;;;5063624;28;20064;-64
2022/11/01 14:23:50;;;;;;;10.25;2.50;;;;;;;;;;5045885;28;20041;-64
2022/11/01 14:26:19;;;;;;;11.30;2.00;;;;;;;;;;5046896;28;20151;-63
2022/11/01 14:28:47;;;;;;;8.52;1.73;;;;;;;;;;5045185;28;20431;-64
2022/11/01 14:31:14;;;;;;;12.48;2.25;;;;;;;;;;5079210;28;20048;-64
2022/11/01 14:33:41;;;;;;;15.57;2.17;;;;;;;;;;5046167;28;20042;-63
2022/11/01 14:36:09;;;;;;;10.18;2.13;;;;;;;;;;5044922;28;20315;-64
2022/11/01 14:38:38;;;;;;;11.32;2.30;;;;;;;;;;5045871;28;20045;-64
2022/11/01 14:41:05;;;;;;;12.45;2.00;;;;;;;;;;5045646;28;20087;-64
2022/11/01 14:43:32;;;;;;;14.50;2.20;;;;;;;;;;5043908;28;20068;-64
2022/11/01 14:46:02;;;;;;;12.48;2.60;;;;;;;;;;5045153;28;20047;-64
2022/11/01 14:48:37;;;;;;;11.80;2.45;;;;;;;;;;5062152;28;20048;-64